235км ВСТО ЛЧ

Карта отелей и гостиниц, располагающихся рядом с аэропортом 235км ВСТО ЛЧ :

235км ВСТО ЛЧ Иркутская область 56° 24' 23.5008" N, 101° 7' 26.04" E
Код аэродрома ИКАО
HJ2P
Код аэродрома RU
ХЙ2П
Координаты
N56.40653° E101.12390°
Превышение над уровнем моря
548
Основная полоса
01/19
Курс магнитный
012,4/192,4
Длина основной ВПП
24
Ширина основной ВПП
21
Покрытие основной ВПП
Твёрдое
Освещение ВПП
По запросу
Тип: 
Вертодром
Класс аэродрома: 
Принадлежность: 
ГА
Статус: 
Действующий
Сайт: 
E-mail аэродрома: 
Страна: 
Россия
Регион: 
Иркутская область
Город: 
Дополнительная информация: 
Горный. Владелец ПП: нет данных.

Найти трансфер

С помощью этой формы Вы можете найти трансфер из аэропорта 235км ВСТО ЛЧ в город, аэропорт или вокзал:

Карта места

Javascript is required to view this map.

Погода в аэропортах:

Авиационная погода в Курске

Погода METAR: 
UUOK 251830Z 14008MPS 3000 -RA BR OVC003 01/01 Q1008 R12/190050 NOSIG RMK QBB110 QFE738/0985
Время наблюдения
2021-01-25T18:30:00Z
Температура C
1.0
Точка росы
1.0
Направление ветра
140
Скорость ветра (узлы)
16
Метео видимость
1.86
Явления погоды
-RA BR
Условия полета
LIFR
Аэропорт подробнее: 

Авиационная погода в Чимкенте

Регион: 
Погода METAR: 
UAII 251830Z 00000MPS 0150 R28/0500N FZFG VV007 M04/M04 Q1028 R28/0///70 NOSIG RMK QFE733/0978
Время наблюдения
2021-01-25T18:30:00Z
Температура C
-4.0
Точка росы
-4.0
Направление ветра
0
Скорость ветра (узлы)
0
Метео видимость
0.09
Явления погоды
FZFG
Условия полета
LIFR
Аэропорт подробнее: 

Авиационная погода в Ровно

Регион: 
Погода METAR: 
UKLR 251230Z 11004MPS 070V140 2000 -DZ BR OVC003 02/02 Q0992 NOSIG
Время наблюдения
2021-01-25T12:30:00Z
Температура C
2.0
Точка росы
2.0
Направление ветра
110
Скорость ветра (узлы)
8
Метео видимость
1.24
Явления погоды
-DZ BR
Условия полета
LIFR
Аэропорт подробнее: 

Авиационная погода в Усть-Каменогорске

Регион: 
Погода METAR: 
UASK 251900Z VRB01MPS 2500 SN OVC037 M21/M23 Q1034 R30/490245 NOSIG RMK QFE750/1000
Время наблюдения
2021-01-25T19:00:00Z
Температура C
-21.0
Точка росы
-23.0
Направление ветра
0
Скорость ветра (узлы)
2
Метео видимость
1.55
Явления погоды
SN
Условия полета
IFR
Аэропорт подробнее: